San Marcos, California
Current Conditions -  °F | °C
As of 3:53 AM on Thursday 18 Dec 2014 (Local Time) from KCRQ Reporting Station
Scattered Clouds Scattered Clouds  
Wind Chill: 12°   Ceiling: Unl
Heat Index: 12°   Visibility: 10mi
Dew Point:   Wind: 3mph
Humidity: 77%   Direction: 100°E
Pressure: 30.12"   Gusts: NA
Location:  33.14°N, 117.15°W
Report Text: KCRQ 181153Z AUTO 10003KT 10SM FEW060 SCT110 12/08 A3012 RMK AO2 SLP197 70027 T01170078 10133 20117 50005 TSNO
Loading
Personal Weather Stations






























Interactive Weather Map New forecast layout! Learn more

10-Day Weather Forecast

Advertisements
Track Severe Weather on mobile